createdAt,value
2018-03-30T00:05:48.000Z,41.631
2018-03-30T00:15:48.000Z,41.604
2018-03-30T00:25:48.000Z,41.751
2018-03-30T00:35:48.000Z,41.681
2018-03-30T00:45:48.000Z,41.697
2018-03-30T00:55:48.000Z,41.575
2018-03-30T01:05:48.000Z,41.452
2018-03-30T01:15:48.000Z,41.467
2018-03-30T01:25:48.000Z,41.441
2018-03-30T01:35:48.000Z,41.405
2018-03-30T01:45:48.000Z,41.346
2018-03-30T01:55:48.000Z,41.375
2018-03-30T02:05:48.000Z,41.166
2018-03-30T02:15:48.000Z,41.247
2018-03-30T02:25:48.000Z,41.233
2018-03-30T02:35:48.000Z,41.121
2018-03-30T02:45:48.000Z,40.989
2018-03-30T02:55:48.000Z,41.059
2018-03-30T03:05:48.000Z,40.99
2018-03-30T03:15:48.000Z,41.051
2018-03-30T03:25:48.000Z,41.037
2018-03-30T03:35:48.000Z,41.033
2018-03-30T03:45:48.000Z,40.857
2018-03-30T03:55:48.000Z,41.307
2018-03-30T04:05:48.000Z,41.2
2018-03-30T04:15:48.000Z,41.252
2018-03-30T04:25:48.000Z,41.174
2018-03-30T04:35:48.000Z,40.926
2018-03-30T04:45:48.000Z,40.474
2018-03-30T04:55:48.000Z,40.248
2018-03-30T05:05:48.000Z,40.298
2018-03-30T05:15:48.000Z,39.87
2018-03-30T05:25:49.000Z,39.459
2018-03-30T05:35:49.000Z,39.64
2018-03-30T05:45:49.000Z,38.997
2018-03-30T05:55:49.000Z,39.028
2018-03-30T06:05:49.000Z,38.599
2018-03-30T06:15:49.000Z,38.21
2018-03-30T06:25:49.000Z,37.91
2018-03-30T06:35:49.000Z,37.629
2018-03-30T06:45:49.000Z,37.337
2018-03-30T06:55:49.000Z,36.626
2018-03-30T07:05:49.000Z,36.792
2018-03-30T07:15:49.000Z,36.909
2018-03-30T07:25:49.000Z,36.467
2018-03-30T07:35:49.000Z,36.952
2018-03-30T07:45:49.000Z,36.169
2018-03-30T07:55:49.000Z,35.987
2018-03-30T08:05:49.000Z,35.337
2018-03-30T08:15:49.000Z,35.558
2018-03-30T08:25:49.000Z,35.43
2018-03-30T08:35:49.000Z,35.559
2018-03-30T08:45:49.000Z,35.432
2018-03-30T08:55:49.000Z,34.969
2018-03-30T09:05:49.000Z,34.768
2018-03-30T09:15:49.000Z,34.707
2018-03-30T09:25:49.000Z,33.988
2018-03-30T09:35:49.000Z,34.064
2018-03-30T09:45:49.000Z,33.978
2018-03-30T09:55:49.000Z,33.526
2018-03-30T10:05:49.000Z,33.221
2018-03-30T10:15:49.000Z,32.83
2018-03-30T10:25:49.000Z,32.357
2018-03-30T10:35:49.000Z,31.839
2018-03-30T10:45:49.000Z,31.626
2018-03-30T10:55:49.000Z,32
2018-03-30T11:05:49.000Z,31.687
2018-03-30T11:15:49.000Z,31.798
2018-03-30T11:25:49.000Z,31.671
2018-03-30T11:35:49.000Z,31.593
2018-03-30T11:45:49.000Z,31.718
2018-03-30T11:55:49.000Z,31.825
2018-03-30T12:05:49.000Z,31.647
2018-03-30T12:15:49.000Z,31.937
2018-03-30T12:25:49.000Z,32.101
2018-03-30T12:35:49.000Z,32.31
2018-03-30T12:45:49.000Z,32.44
2018-03-30T12:55:49.000Z,32.556
2018-03-30T13:05:49.000Z,32.9
2018-03-30T13:15:49.000Z,33.071
2018-03-30T13:25:49.000Z,32.787
2018-03-30T13:35:50.000Z,33.375
2018-03-30T13:45:50.000Z,33.606
2018-03-30T13:55:50.000Z,33.923
2018-03-30T14:05:50.000Z,34.087
2018-03-30T14:15:50.000Z,34.291
2018-03-30T14:25:50.000Z,34.53
2018-03-30T14:35:50.000Z,34.811
2018-03-30T14:45:50.000Z,34.643
2018-03-30T14:55:50.000Z,34.801
2018-03-30T15:05:50.000Z,35.017
2018-03-30T15:15:50.000Z,35.287
2018-03-30T15:25:50.000Z,29.363
2018-03-30T15:35:50.000Z,27.884
2018-03-30T15:45:50.000Z,33.037
2018-03-30T15:55:50.000Z,33.856
2018-03-30T16:05:50.000Z,34.685
2018-03-30T16:15:50.000Z,34.679
2018-03-30T16:25:50.000Z,35.263
2018-03-30T16:35:50.000Z,35.374
2018-03-30T16:45:50.000Z,35.458
2018-03-30T16:55:50.000Z,35.609
2018-03-30T17:05:50.000Z,36.041
2018-03-30T17:15:50.000Z,35.911
2018-03-30T17:25:50.000Z,36.159
2018-03-30T17:35:50.000Z,36.396
2018-03-30T17:45:50.000Z,36.512
2018-03-30T17:55:50.000Z,36.706
2018-03-30T18:05:50.000Z,36.866
2018-03-30T18:15:50.000Z,37.071
2018-03-30T18:25:50.000Z,37.183
2018-03-30T18:35:50.000Z,37.517
2018-03-30T18:45:50.000Z,38.119
2018-03-30T18:55:50.000Z,38.193
2018-03-30T19:05:50.000Z,38.233
2018-03-30T19:15:50.000Z,38.603
2018-03-30T19:25:50.000Z,38.546
2018-03-30T19:35:50.000Z,39.025
2018-03-30T19:45:50.000Z,39.086
2018-03-30T19:55:51.000Z,39.13
2018-03-30T20:05:51.000Z,39.107
2018-03-30T20:15:50.000Z,39.343
2018-03-30T20:25:50.000Z,39.429
2018-03-30T20:35:50.000Z,39.578
2018-03-30T20:45:50.000Z,39.64
2018-03-30T20:55:50.000Z,39.922
2018-03-30T21:05:50.000Z,40.006
2018-03-30T21:15:50.000Z,40.166
2018-03-30T21:25:50.000Z,40.162
2018-03-30T21:35:50.000Z,40.284
2018-03-30T21:45:50.000Z,40.399
2018-03-30T21:55:50.000Z,40.232
2018-03-30T22:05:51.000Z,40.238
2018-03-30T22:15:51.000Z,40.427
2018-03-30T22:25:51.000Z,40.532
2018-03-30T22:35:51.000Z,40.558
2018-03-30T22:45:51.000Z,40.748
2018-03-30T22:55:51.000Z,40.785
2018-03-30T23:05:51.000Z,40.976
2018-03-30T23:15:51.000Z,40.937
2018-03-30T23:25:51.000Z,41.226
2018-03-30T23:35:51.000Z,41.297
2018-03-30T23:45:51.000Z,41.355
2018-03-30T23:55:51.000Z,41.427
